Terminal Aerodrome Forecast
Issued by NWS

Current Version | Previous Version | Graphics & Text | Print | Product List | Glossary On
Versions: 1 2 3 4 5 6 7 8 9 10 11 12 13 14 15 16 17 18 19
072
FTUS41 KILN 220903 AAA
TAFLUK
TAF AMD
KLUK 220903Z 2209/2306 15003KT 1SM BR SCT250
     FM221300 17009KT P6SM FEW120 BKN250
     FM230000 15005KT P6SM BKN130=

USA.gov is the U.S. government's official web portal to all federal, state and local government web resources and services.